Time;durP1;ratioP1;P1;durP2;ratioP2;P2;SDS_P1;SDS_P2;PMS_P1;PMS_P2;Temp;Humidity;BMP_temperature;BMP_pressure;BME280_temperature;BME280_humidity;BME280_pressure;Samples;Min_cycle;Max_cycle;Signal;HPM_P1;HPM_P2
2022/06/27 00:00:09;;;;;;;7.90;7.07;;;18.30;99.90;;;;;;5051848;28;20044;-79
2022/06/27 00:02:36;;;;;;;9.00;7.63;;;18.30;99.90;;;;;;5049170;28;20510;-78
2022/06/27 00:05:02;;;;;;;9.93;7.28;;;18.30;99.90;;;;;;5049180;28;20130;-79
2022/06/27 00:07:28;;;;;;;9.95;7.50;;;18.30;99.90;;;;;;5051683;28;20049;-79
2022/06/27 00:09:53;;;;;;;11.13;8.07;;;18.30;99.90;;;;;;5052734;28;20418;-80
2022/06/27 00:12:19;;;;;;;9.27;7.50;;;18.30;99.90;;;;;;5050437;28;20051;-79
2022/06/27 00:14:44;;;;;;;10.88;7.95;;;18.30;99.90;;;;;;5044612;28;20032;-79
2022/06/27 00:17:10;;;;;;;13.13;7.90;;;18.20;99.90;;;;;;5050895;28;20033;-79
2022/06/27 00:19:35;;;;;;;10.43;7.38;;;18.20;99.90;;;;;;5050716;28;20449;-79
2022/06/27 00:22:01;;;;;;;10.95;8.05;;;18.20;99.90;;;;;;5049970;28;20487;-79
2022/06/27 00:24:27;;;;;;;10.15;8.07;;;18.20;99.90;;;;;;5049238;28;20076;-79
2022/06/27 00:26:52;;;;;;;9.98;8.18;;;18.10;99.90;;;;;;5047887;28;20094;-79
2022/06/27 00:29:18;;;;;;;9.70;8.05;;;18.10;99.90;;;;;;5050513;28;20037;-78
2022/06/27 00:31:43;;;;;;;9.85;8.05;;;18.30;99.90;;;;;;5047886;28;20048;-78
2022/06/27 00:34:09;;;;;;;10.18;8.40;;;18.10;99.90;;;;;;5046441;28;20037;-78
2022/06/27 00:36:34;;;;;;;11.75;8.68;;;18.10;99.90;;;;;;5049415;28;20041;-78
2022/06/27 00:39:00;;;;;;;12.50;8.20;;;18.10;99.90;;;;;;5050515;28;20067;-78
2022/06/27 00:41:26;;;;;;;10.20;8.35;;;18.10;99.90;;;;;;5046141;28;20045;-79
2022/06/27 00:43:51;;;;;;;10.23;8.77;;;18.10;99.90;;;;;;5048965;28;20041;-79
2022/06/27 00:46:17;;;;;;;11.40;7.93;;;18.10;99.90;;;;;;5049804;28;20036;-79
2022/06/27 00:48:42;;;;;;;9.32;8.27;;;18.00;99.90;;;;;;5045837;28;20049;-79
2022/06/27 00:51:09;;;;;;;10.45;8.15;;;18.10;99.90;;;;;;5050475;28;20037;-78
2022/06/27 00:53:35;;;;;;;8.93;7.70;;;18.10;99.90;;;;;;5050296;28;20048;-78
2022/06/27 00:56:01;;;;;;;10.38;7.68;;;18.10;99.90;;;;;;5048445;28;20041;-79
2022/06/27 00:58:27;;;;;;;11.13;8.18;;;18.10;99.90;;;;;;5048676;28;20041;-79
2022/06/27 01:00:53;;;;;;;10.27;8.07;;;18.10;99.90;;;;;;5049169;28;20461;-78
2022/06/27 01:03:18;;;;;;;11.02;8.55;;;18.10;99.90;;;;;;5048223;28;20045;-78
2022/06/27 01:05:51;;;;;;;8.93;7.88;;;18.10;99.90;;;;;;5039880;28;20119;-78
2022/06/27 01:08:21;;;;;;;9.55;8.50;;;18.10;99.90;;;;;;5048419;28;20041;-79
2022/06/27 01:10:48;;;;;;;11.23;8.38;;;18.10;99.90;;;;;;5039872;28;20037;-77
2022/06/27 01:13:14;;;;;;;8.73;7.93;;;18.10;99.90;;;;;;5049002;28;20383;-79
2022/06/27 01:15:44;;;;;;;11.02;8.15;;;18.10;99.90;;;;;;5047531;28;20087;-79
2022/06/27 01:18:10;;;;;;;12.30;8.45;;;18.10;99.90;;;;;;5051134;28;20041;-79
2022/06/27 01:20:36;;;;;;;9.75;7.72;;;18.00;99.90;;;;;;5051443;28;20103;-78
2022/06/27 01:23:02;;;;;;;10.80;7.82;;;18.00;99.90;;;;;;5050056;28;20048;-78
2022/06/27 01:25:27;;;;;;;10.38;8.02;;;18.00;99.90;;;;;;5048608;28;20712;-79
2022/06/27 01:27:53;;;;;;;8.07;7.28;;;17.90;99.90;;;;;;5049696;28;20112;-79
2022/06/27 01:30:20;;;;;;;10.05;7.63;;;17.90;99.90;;;;;;5050070;28;20120;-78
2022/06/27 01:32:45;;;;;;;9.43;7.35;;;17.80;99.90;;;;;;5048811;28;20045;-79
2022/06/27 01:35:11;;;;;;;9.27;8.07;;;17.70;99.90;;;;;;5045162;28;20045;-79
2022/06/27 01:37:37;;;;;;;9.80;7.53;;;17.60;99.90;;;;;;5047263;28;20045;-78
2022/06/27 01:40:03;;;;;;;12.20;8.02;;;17.70;99.90;;;;;;5049427;28;20128;-79
2022/06/27 01:42:29;;;;;;;10.45;8.27;;;17.70;99.90;;;;;;5049821;28;20037;-78
2022/06/27 01:44:54;;;;;;;13.82;8.50;;;17.70;99.90;;;;;;5046887;28;20052;-79
2022/06/27 01:47:20;;;;;;;9.70;7.80;;;17.70;99.90;;;;;;5049647;28;20094;-79
2022/06/27 01:49:46;;;;;;;9.10;6.88;;;17.70;99.90;;;;;;5049980;28;20049;-79
2022/06/27 01:52:14;;;;;;;9.65;7.80;;;17.70;99.90;;;;;;5049818;28;20390;-79
2022/06/27 01:54:41;;;;;;;9.60;7.47;;;17.70;99.90;;;;;;5048454;28;20068;-80
2022/06/27 01:57:10;;;;;;;8.65;7.72;;;17.70;99.90;;;;;;5049414;28;20044;-79
2022/06/27 01:59:36;;;;;;;10.48;8.10;;;17.70;99.90;;;;;;5047866;28;20126;-79
2022/06/27 02:02:03;;;;;;;9.57;8.38;;;17.70;99.90;;;;;;5052195;28;20502;-80
2022/06/27 02:04:31;;;;;;;10.45;7.82;;;17.60;99.90;;;;;;5052315;28;20084;-80
2022/06/27 02:06:57;;;;;;;9.55;8.40;;;17.50;99.90;;;;;;5054449;28;20041;-79
2022/06/27 02:09:24;;;;;;;9.52;8.48;;;17.50;99.90;;;;;;5053744;28;20045;-79
2022/06/27 02:11:51;;;;;;;11.02;8.55;;;17.50;99.90;;;;;;5050822;28;20045;-79
2022/06/27 02:14:18;;;;;;;9.65;8.57;;;17.50;99.90;;;;;;5050321;28;20041;-78
2022/06/27 02:16:44;;;;;;;10.38;9.00;;;17.40;99.90;;;;;;5049264;28;20115;-78
2022/06/27 02:19:12;;;;;;;12.73;9.80;;;17.40;99.90;;;;;;5053180;28;20110;-79
2022/06/27 02:21:39;;;;;;;10.88;9.50;;;17.30;99.90;;;;;;5052355;28;20103;-79
2022/06/27 02:24:04;;;;;;;13.10;10.43;;;17.30;99.90;;;;;;5051169;28;20049;-80
2022/06/27 02:26:31;;;;;;;11.50;9.90;;;17.20;99.90;;;;;;5051332;28;20037;-79
2022/06/27 02:28:57;;;;;;;11.02;9.93;;;17.20;99.90;;;;;;5052731;28;20045;-80
2022/06/27 02:31:23;;;;;;;12.13;10.30;;;17.30;99.90;;;;;;5052923;28;20044;-80
2022/06/27 02:33:50;;;;;;;11.35;9.63;;;17.30;99.90;;;;;;5049750;28;20029;-80
2022/06/27 02:36:19;;;;;;;12.43;9.95;;;17.30;99.90;;;;;;5053222;28;20057;-80
2022/06/27 02:38:48;;;;;;;12.48;10.48;;;17.30;99.90;;;;;;5048321;28;20121;-79
2022/06/27 02:41:15;;;;;;;11.10;9.70;;;17.40;99.90;;;;;;5052303;28;20123;-79
2022/06/27 02:43:44;;;;;;;11.27;9.52;;;17.40;99.90;;;;;;5053387;28;20044;-78
2022/06/27 02:46:10;;;;;;;11.10;9.80;;;17.40;99.90;;;;;;5051523;28;20072;-79
2022/06/27 02:48:37;;;;;;;14.13;10.05;;;17.40;99.90;;;;;;5052269;28;20533;-79
2022/06/27 02:51:12;;;;;;;12.75;10.32;;;17.40;99.90;;;;;;5052384;28;20163;-79
2022/06/27 02:54:02;;;;;;;12.10;10.85;;;17.40;99.90;;;;;;5050112;28;20041;-79
2022/06/27 02:56:29;;;;;;;13.18;10.25;;;17.50;99.90;;;;;;5049139;28;20119;-79
2022/06/27 02:59:02;;;;;;;12.20;10.60;;;17.50;99.90;;;;;;5053306;28;20043;-79
2022/06/27 03:01:30;;;;;;;10.73;9.73;;;17.50;99.90;;;;;;5053624;28;20367;-79
2022/06/27 03:03:58;;;;;;;11.40;10.18;;;17.50;99.90;;;;;;5048772;28;20041;-79
2022/06/27 03:06:24;;;;;;;12.50;10.70;;;17.50;99.90;;;;;;5050529;28;20040;-79
2022/06/27 03:08:50;;;;;;;12.65;9.90;;;17.50;99.90;;;;;;5051953;28;20036;-79
2022/06/27 03:11:18;;;;;;;13.35;10.80;;;17.50;99.90;;;;;;5051818;28;20045;-79
2022/06/27 03:13:45;;;;;;;13.00;11.15;;;17.50;99.90;;;;;;5047730;28;20040;-78
2022/06/27 03:16:12;;;;;;;11.85;10.38;;;17.60;99.90;;;;;;5053226;28;20457;-79
2022/06/27 03:18:37;;;;;;;16.83;12.00;;;17.50;99.90;;;;;;5051974;28;20410;-79
2022/06/27 03:21:03;;;;;;;13.93;10.25;;;17.50;99.90;;;;;;5050576;28;20049;-79
2022/06/27 03:23:29;;;;;;;12.05;10.52;;;17.50;99.90;;;;;;5050677;28;20033;-79
2022/06/27 03:25:55;;;;;;;12.60;11.18;;;17.40;99.90;;;;;;5050714;28;20399;-79
2022/06/27 03:28:21;;;;;;;12.30;11.07;;;17.50;99.90;;;;;;5051714;28;20111;-79
2022/06/27 03:30:47;;;;;;;12.20;10.85;;;17.50;99.90;;;;;;5051819;28;20495;-79
2022/06/27 03:33:14;;;;;;;11.75;10.48;;;17.50;99.90;;;;;;5051716;28;20449;-79
2022/06/27 03:35:41;;;;;;;11.30;10.18;;;17.50;99.90;;;;;;5049654;28;20359;-78
2022/06/27 03:38:06;;;;;;;12.30;10.90;;;17.50;99.90;;;;;;5051270;28;20099;-79
2022/06/27 03:40:32;;;;;;;16.10;12.18;;;17.50;99.90;;;;;;5051141;28;20502;-78
2022/06/27 03:42:58;;;;;;;13.90;12.40;;;17.50;99.90;;;;;;5051349;28;20037;-79
2022/06/27 03:45:23;;;;;;;15.00;12.32;;;17.50;99.90;;;;;;5050751;28;20043;-80
2022/06/27 03:48:01;;;;;;;14.23;11.95;;;17.40;99.90;;;;;;5049708;28;20067;-79
2022/06/27 03:50:27;;;;;;;13.68;12.18;;;17.40;99.90;;;;;;5051838;28;20045;-79
2022/06/27 03:52:54;;;;;;;14.75;13.10;;;17.40;99.90;;;;;;5052379;28;20037;-80
2022/06/27 03:55:20;;;;;;;14.80;12.70;;;17.40;99.90;;;;;;5050627;28;20075;-79
2022/06/27 03:57:57;;;;;;;14.15;12.55;;;17.40;99.90;;;;;;5050764;28;20116;-79
2022/06/27 04:00:26;;;;;;;14.98;12.30;;;17.50;99.90;;;;;;5051493;28;20037;-80
2022/06/27 04:02:52;;;;;;;13.50;12.15;;;17.40;99.90;;;;;;5050080;28;20066;-80
2022/06/27 04:05:18;;;;;;;13.73;12.18;;;17.40;99.90;;;;;;5046616;28;20494;-80
2022/06/27 04:07:44;;;;;;;13.65;12.20;;;17.40;99.90;;;;;;5048226;28;20037;-79
2022/06/27 04:10:12;;;;;;;13.45;12.05;;;17.40;99.90;;;;;;5051955;28;20052;-80
2022/06/27 04:12:40;;;;;;;13.82;11.68;;;17.40;99.90;;;;;;5052605;28;20045;-79
2022/06/27 04:15:07;;;;;;;14.98;12.18;;;17.40;99.90;;;;;;5048094;28;20055;-79
2022/06/27 04:17:33;;;;;;;11.98;10.77;;;17.50;99.90;;;;;;5052093;28;20033;-79
2022/06/27 04:19:59;;;;;;;12.93;11.63;;;17.40;99.90;;;;;;5050209;28;20037;-80
2022/06/27 04:22:24;;;;;;;13.40;11.73;;;17.50;99.90;;;;;;5052026;28;20052;-80
2022/06/27 04:24:50;;;;;;;13.93;11.77;;;17.50;99.90;;;;;;5049031;28;20036;-80
2022/06/27 04:27:19;;;;;;;12.93;11.43;;;17.40;99.90;;;;;;5050877;28;20036;-79
2022/06/27 04:29:44;;;;;;;13.43;12.02;;;17.50;99.90;;;;;;5044353;28;20045;-80
2022/06/27 04:32:10;;;;;;;13.30;11.70;;;17.50;99.90;;;;;;5048520;28;20143;-81
2022/06/27 04:34:37;;;;;;;11.75;10.55;;;17.50;99.90;;;;;;5048605;28;20495;-80
2022/06/27 04:37:03;;;;;;;11.60;10.30;;;17.50;99.90;;;;;;5050385;28;20049;-80
2022/06/27 04:39:30;;;;;;;12.73;11.20;;;17.50;99.90;;;;;;5050357;28;20041;-79
2022/06/27 04:41:55;;;;;;;11.05;9.95;;;17.50;99.90;;;;;;5050121;28;20037;-79
2022/06/27 04:44:21;;;;;;;11.23;9.90;;;17.50;99.90;;;;;;5051169;28;20044;-79
2022/06/27 04:46:49;;;;;;;11.93;10.73;;;17.40;99.90;;;;;;5051872;28;20033;-80
2022/06/27 04:49:16;;;;;;;11.23;10.13;;;17.40;99.90;;;;;;5048376;28;20485;-80
2022/06/27 04:51:43;;;;;;;11.23;10.02;;;17.40;99.90;;;;;;5049983;28;20501;-79
2022/06/27 04:54:10;;;;;;;10.85;9.85;;;17.40;99.90;;;;;;5048928;28;20047;-80
2022/06/27 04:56:39;;;;;;;10.73;9.60;;;17.40;99.90;;;;;;5049717;28;20048;-80
2022/06/27 04:59:05;;;;;;;10.05;9.05;;;17.40;99.90;;;;;;5051076;28;20052;-79
2022/06/27 05:01:30;;;;;;;9.13;7.72;;;17.40;99.90;;;;;;5050284;28;20036;-78
2022/06/27 05:03:56;;;;;;;9.00;7.88;;;17.40;99.90;;;;;;5048429;28;20041;-79
2022/06/27 05:06:22;;;;;;;9.07;7.22;;;17.40;99.90;;;;;;5050395;28;20041;-78
2022/06/27 05:08:47;;;;;;;9.50;6.85;;;17.40;99.90;;;;;;5048104;28;20120;-80
2022/06/27 05:11:13;;;;;;;7.00;6.32;;;17.40;99.90;;;;;;5048856;28;20044;-80
2022/06/27 05:13:38;;;;;;;7.10;6.35;;;17.20;99.90;;;;;;5048839;28;20049;-79
2022/06/27 05:16:04;;;;;;;7.63;6.28;;;17.30;99.90;;;;;;5046133;28;20529;-78
2022/06/27 05:18:31;;;;;;;6.25;5.50;;;17.30;99.90;;;;;;5047094;28;20403;-78
2022/06/27 05:20:56;;;;;;;7.47;5.50;;;17.40;99.90;;;;;;5050560;28;20076;-80
2022/06/27 05:23:22;;;;;;;6.35;5.75;;;17.40;99.90;;;;;;5050145;28;20068;-79
2022/06/27 05:25:48;;;;;;;6.00;5.40;;;17.30;99.90;;;;;;5049236;28;20045;-79
2022/06/27 05:28:13;;;;;;;6.97;4.93;;;17.40;99.90;;;;;;5049758;28;20427;-79
2022/06/27 05:30:39;;;;;;;6.43;5.45;;;17.40;99.90;;;;;;5051323;28;20495;-79
2022/06/27 05:33:04;;;;;;;7.13;4.95;;;17.50;99.90;;;;;;5050966;28;20037;-79
2022/06/27 05:35:30;;;;;;;5.65;5.10;;;17.50;99.90;;;;;;5049364;28;20130;-80
2022/06/27 05:37:56;;;;;;;5.88;4.50;;;17.50;99.90;;;;;;5053548;28;20518;-79
2022/06/27 05:40:22;;;;;;;5.50;4.60;;;17.50;99.90;;;;;;5053393;28;20060;-79
2022/06/27 05:42:49;;;;;;;5.05;4.55;;;17.50;99.90;;;;;;5054776;28;20094;-79
2022/06/27 05:45:15;;;;;;;5.97;4.40;;;17.60;99.90;;;;;;5052849;28;20037;-79
2022/06/27 05:47:42;;;;;;;4.25;3.80;;;17.60;99.90;;;;;;5051445;28;20044;-80
2022/06/27 05:50:08;;;;;;;5.38;4.07;;;17.60;99.90;;;;;;5054541;28;20049;-80
2022/06/27 05:52:34;;;;;;;4.57;3.85;;;17.70;99.90;;;;;;5053982;28;20045;-79
2022/06/27 05:55:00;;;;;;;4.35;3.72;;;17.70;99.90;;;;;;5052695;28;20120;-79
2022/06/27 05:57:27;;;;;;;5.65;3.40;;;17.90;99.90;;;;;;5053308;28;20125;-79
2022/06/27 05:59:55;;;;;;;4.15;3.35;;;17.90;99.90;;;;;;5050772;28;20093;-79
2022/06/27 06:02:21;;;;;;;6.15;3.70;;;18.10;99.90;;;;;;5051198;28;20041;-79
2022/06/27 06:04:47;;;;;;;4.40;3.45;;;18.10;99.90;;;;;;5051421;28;20122;-79
2022/06/27 06:07:14;;;;;;;5.13;3.38;;;18.10;99.90;;;;;;5053340;28;20347;-79
2022/06/27 06:09:41;;;;;;;4.97;3.50;;;18.10;99.90;;;;;;5054780;28;20049;-79
2022/06/27 06:12:09;;;;;;;4.03;3.30;;;18.10;99.90;;;;;;5051471;28;20044;-79
2022/06/27 06:14:36;;;;;;;4.18;3.47;;;18.10;99.90;;;;;;5053199;28;20415;-79
2022/06/27 06:17:03;;;;;;;4.68;3.03;;;18.10;99.90;;;;;;5051340;28;20048;-79
2022/06/27 06:19:28;;;;;;;4.35;2.97;;;17.90;99.90;;;;;;5052757;28;20128;-79
2022/06/27 06:21:54;;;;;;;4.03;3.00;;;17.90;99.90;;;;;;5052052;28;20104;-79
2022/06/27 06:24:21;;;;;;;4.63;2.97;;;18.00;99.90;;;;;;5052032;28;20069;-79
2022/06/27 06:26:46;;;;;;;5.03;3.33;;;17.90;99.90;;;;;;5051609;28;20071;-80
2022/06/27 06:29:12;;;;;;;4.25;3.00;;;17.80;99.90;;;;;;5052498;28;20076;-79
2022/06/27 06:31:43;;;;;;;3.90;3.00;;;17.80;99.90;;;;;;5053119;28;20037;-79
2022/06/27 06:34:12;;;;;;;6.90;3.22;;;17.90;99.90;;;;;;5049158;28;20091;-79
2022/06/27 06:36:39;;;;;;;3.28;2.80;;;17.90;99.90;;;;;;5054811;28;20045;-79
2022/06/27 06:39:05;;;;;;;4.05;2.60;;;17.90;99.90;;;;;;5051414;28;20594;-80
2022/06/27 06:41:32;;;;;;;3.13;2.60;;;18.00;99.90;;;;;;5051122;28;20076;-79
2022/06/27 06:43:59;;;;;;;2.92;2.45;;;17.80;99.90;;;;;;5052895;28;20094;-80
2022/06/27 06:46:28;;;;;;;3.17;2.78;;;17.90;99.90;;;;;;5052598;28;20441;-79
2022/06/27 06:48:57;;;;;;;4.05;2.70;;;17.90;99.90;;;;;;5053418;28;20072;-80
2022/06/27 06:51:24;;;;;;;3.65;2.88;;;17.90;99.90;;;;;;5051503;28;20076;-80
2022/06/27 06:53:49;;;;;;;4.63;2.70;;;17.90;99.90;;;;;;5051556;28;20052;-80
2022/06/27 06:56:15;;;;;;;3.67;2.50;;;17.90;99.90;;;;;;5050905;28;20049;-80
2022/06/27 06:58:41;;;;;;;5.78;2.50;;;17.90;99.90;;;;;;5051286;28;20037;-79
2022/06/27 07:01:07;;;;;;;4.75;2.75;;;17.90;99.90;;;;;;5051483;28;20109;-79
2022/06/27 07:03:33;;;;;;;3.78;3.00;;;17.80;99.90;;;;;;5050035;28;20105;-79
2022/06/27 07:05:59;;;;;;;3.85;2.88;;;17.90;99.90;;;;;;5052776;28;20044;-79
2022/06/27 07:08:25;;;;;;;5.15;3.08;;;17.80;99.90;;;;;;5053171;28;20033;-80
2022/06/27 07:10:51;;;;;;;4.65;2.60;;;17.80;99.90;;;;;;5051597;28;20086;-80
2022/06/27 07:13:17;;;;;;;4.93;3.05;;;17.80;99.90;;;;;;5051341;28;20040;-80
2022/06/27 07:15:46;;;;;;;4.18;2.70;;;17.90;99.90;;;;;;5052048;28;20041;-80
2022/06/27 07:18:13;;;;;;;3.30;2.92;;;17.90;99.90;;;;;;5049158;28;20036;-80
2022/06/27 07:20:39;;;;;;;2.78;2.30;;;18.00;99.90;;;;;;5050466;28;20120;-80
2022/06/27 07:23:06;;;;;;;3.03;2.63;;;18.00;99.90;;;;;;5049021;28;20065;-80
2022/06/27 07:25:35;;;;;;;3.40;2.60;;;18.00;99.90;;;;;;5048187;28;20044;-80
2022/06/27 07:28:01;;;;;;;5.32;2.90;;;18.10;99.90;;;;;;5052423;28;20182;-80
2022/06/27 07:30:27;;;;;;;3.33;2.60;;;18.10;99.90;;;;;;5050192;28;20124;-79
2022/06/27 07:32:52;;;;;;;3.50;2.20;;;18.20;99.90;;;;;;5038680;28;22482;-80
2022/06/27 07:35:18;;;;;;;2.38;2.05;;;18.20;99.90;;;;;;5049156;28;20028;-80
2022/06/27 07:37:48;;;;;;;2.90;2.22;;;18.20;99.90;;;;;;5043564;28;20040;-80
2022/06/27 07:40:21;;;;;;;3.47;2.20;;;18.30;99.90;;;;;;5051384;28;20036;-80
2022/06/27 07:42:49;;;;;;;5.50;2.30;;;18.30;99.90;;;;;;5046621;28;20116;-80
2022/06/27 07:45:15;;;;;;;2.92;2.20;;;18.20;99.90;;;;;;5048620;28;20095;-80
2022/06/27 07:47:46;;;;;;;2.75;2.45;;;18.30;99.90;;;;;;5051265;28;20076;-80
2022/06/27 07:50:36;;;;;;;3.65;2.10;;;18.20;99.90;;;;;;5049865;28;20040;-79
2022/06/27 07:53:12;;;;;;;2.83;2.55;;;18.20;99.90;;;;;;5046010;28;20049;-79
2022/06/27 07:55:50;;;;;;;3.00;2.20;;;18.10;99.90;;;;;;5051108;28;20400;-79
2022/06/27 07:58:17;;;;;;;4.38;2.60;;;18.10;99.90;;;;;;5050743;28;20120;-79
2022/06/27 08:00:49;;;;;;;3.53;2.40;;;18.10;99.90;;;;;;5046328;28;20040;-79
2022/06/27 08:06:02;;;;;;;4.53;2.42;;;18.10;99.90;;;;;;5042545;28;20052;-79
2022/06/27 08:08:30;;;;;;;4.70;2.67;;;18.20;99.90;;;;;;5051947;28;20112;-79
2022/06/27 08:10:56;;;;;;;4.35;3.28;;;18.30;99.90;;;;;;5052129;28;20041;-79
2022/06/27 08:13:21;;;;;;;4.53;3.00;;;18.30;99.90;;;;;;5050958;28;20045;-79
2022/06/27 08:15:48;;;;;;;4.10;2.60;;;18.40;99.90;;;;;;5051130;28;20062;-80
2022/06/27 08:18:15;;;;;;;3.60;2.72;;;18.50;99.90;;;;;;5047889;28;20033;-80
2022/06/27 08:20:42;;;;;;;3.55;2.80;;;18.60;99.90;;;;;;5051462;28;20056;-79
2022/06/27 08:23:08;;;;;;;6.05;2.63;;;18.70;99.90;;;;;;5051542;28;20052;-79
2022/06/27 08:25:34;;;;;;;3.05;2.65;;;18.70;99.90;;;;;;5052230;28;20040;-79
2022/06/27 08:28:00;;;;;;;3.92;2.72;;;18.80;99.90;;;;;;5051650;28;20037;-79
2022/06/27 08:30:27;;;;;;;4.68;2.78;;;18.90;99.90;;;;;;5053081;28;20053;-80
2022/06/27 08:32:56;;;;;;;5.43;2.60;;;19.00;99.90;;;;;;5053454;28;20516;-81
2022/06/27 08:35:24;;;;;;;4.38;2.42;;;19.10;99.90;;;;;;5038490;28;20044;-79
2022/06/27 08:37:54;;;;;;;3.90;2.33;;;19.20;99.90;;;;;;5052176;28;20075;-79
2022/06/27 08:40:21;;;;;;;4.40;2.63;;;19.20;99.90;;;;;;5050915;28;20613;-79
2022/06/27 08:42:50;;;;;;;4.05;2.70;;;19.20;99.90;;;;;;5050616;28;20525;-79
2022/06/27 08:45:17;;;;;;;4.22;2.53;;;19.20;99.90;;;;;;5050986;28;20547;-79
2022/06/27 08:47:43;;;;;;;5.72;2.65;;;19.20;99.90;;;;;;5051172;28;20059;-80
2022/06/27 08:50:11;;;;;;;3.08;2.55;;;19.20;99.90;;;;;;5051677;28;20399;-79
2022/06/27 08:52:40;;;;;;;5.25;2.90;;;19.10;99.90;;;;;;5050232;28;20047;-79
2022/06/27 08:55:08;;;;;;;3.85;2.70;;;19.00;99.90;;;;;;5048326;28;20049;-79
2022/06/27 08:57:41;;;;;;;3.25;2.70;;;19.00;99.90;;;;;;5049360;28;20036;-79
2022/06/27 09:00:09;;;;;;;3.92;3.08;;;19.00;99.90;;;;;;5047322;28;20045;-79
2022/06/27 09:02:42;;;;;;;3.83;3.00;;;19.10;99.90;;;;;;5065504;28;20037;-79
2022/06/27 09:05:26;;;;;;;3.40;2.90;;;19.20;99.90;;;;;;5048548;28;20048;-79
2022/06/27 09:07:56;;;;;;;4.20;3.03;;;19.20;99.90;;;;;;5039016;28;20514;-79
2022/06/27 09:10:32;;;;;;;3.38;2.92;;;19.30;99.90;;;;;;5049362;28;20053;-79
2022/06/27 09:13:00;;;;;;;4.00;2.75;;;19.40;99.90;;;;;;5052168;28;20043;-79
2022/06/27 09:15:46;;;;;;;4.55;3.25;;;19.50;99.90;;;;;;5052778;28;20059;-79
2022/06/27 09:18:14;;;;;;;4.60;3.08;;;19.50;99.90;;;;;;5053619;28;20128;-79
2022/06/27 09:20:46;;;;;;;4.32;3.20;;;19.60;99.90;;;;;;5049431;28;20132;-79
2022/06/27 09:23:38;;;;;;;5.18;3.28;;;19.80;99.90;;;;;;5047862;28;20617;-79
2022/06/27 09:26:18;;;;;;;4.13;3.72;;;19.80;99.90;;;;;;5052711;28;20040;-79
2022/06/27 09:28:52;;;;;;;3.92;3.13;;;20.00;99.90;;;;;;5053722;28;20383;-79
2022/06/27 09:31:30;;;;;;;3.22;2.92;;;20.00;99.90;;;;;;5055347;28;20453;-79
2022/06/27 09:34:23;;;;;;;4.90;3.05;;;20.00;99.90;;;;;;5053440;28;20491;-80
2022/06/27 09:37:00;;;;;;;4.03;2.92;;;19.90;99.90;;;;;;5053925;28;20045;-79
2022/06/27 09:39:29;;;;;;;4.07;2.60;;;19.80;99.90;;;;;;5055160;28;20171;-80
2022/06/27 09:42:10;;;;;;;3.38;2.70;;;19.70;99.90;;;;;;5055363;28;20047;-79
2022/06/27 09:44:44;;;;;;;3.53;2.65;;;19.60;99.90;;;;;;5055105;28;20072;-79
2022/06/27 09:47:18;;;;;;;3.83;2.83;;;19.50;99.90;;;;;;5054722;28;20044;-79
2022/06/27 09:49:50;;;;;;;3.85;3.10;;;19.50;99.90;;;;;;5053842;28;20045;-79
2022/06/27 09:52:24;;;;;;;4.20;2.67;;;19.50;99.90;;;;;;5054881;28;20029;-79
2022/06/27 09:54:53;;;;;;;2.65;2.10;;;19.60;99.90;;;;;;5050757;28;20040;-78
2022/06/27 09:57:20;;;;;;;3.85;2.22;;;19.60;99.90;;;;;;5053709;28;20399;-79
2022/06/27 09:59:51;;;;;;;2.60;2.30;;;19.60;99.90;;;;;;5051686;28;20078;-79
2022/06/27 10:02:22;;;;;;;2.92;2.10;;;19.50;99.90;;;;;;5054448;28;20399;-79
2022/06/27 10:04:48;;;;;;;3.58;1.90;;;19.50;99.90;;;;;;5051497;28;20048;-79
2022/06/27 10:07:17;;;;;;;3.10;2.00;;;19.50;99.90;;;;;;5053153;28;20502;-79
2022/06/27 10:09:43;;;;;;;3.20;1.83;;;19.50;99.90;;;;;;5053404;28;20116;-78
2022/06/27 10:12:28;;;;;;;4.07;1.98;;;19.60;99.90;;;;;;5055752;28;20398;-79
2022/06/27 10:15:14;;;;;;;2.70;2.15;;;19.60;99.90;;;;;;5053088;28;20049;-78
2022/06/27 10:17:49;;;;;;;3.97;1.80;;;19.60;99.90;;;;;;5053005;28;20110;-78
2022/06/27 10:20:20;;;;;;;3.35;2.10;;;19.70;99.90;;;;;;5052886;28;20052;-78
2022/06/27 10:23:25;;;;;;;2.50;2.00;;;19.80;99.90;;;;;;5051504;28;20510;-78
2022/06/27 10:25:50;;;;;;;;;;;19.80;99.90;;;;;;5052878;28;20049;-79
2022/06/27 10:28:18;;;;;;;3.03;2.30;;;19.80;99.90;;;;;;5047768;28;19963;-79
2022/06/27 10:30:52;;;;;;;3.17;2.42;;;19.80;99.90;;;;;;5047810;28;20045;-78
2022/06/27 10:33:21;;;;;;;3.40;2.42;;;19.80;99.90;;;;;;5046759;28;20621;-78
2022/06/27 10:36:02;;;;;;;3.45;2.20;;;19.80;99.90;;;;;;5047277;28;20041;-78
2022/06/27 10:38:31;;;;;;;3.20;2.10;;;19.80;99.90;;;;;;5047282;28;20148;-78
2022/06/27 10:41:02;;;;;;;2.15;1.88;;;19.80;99.90;;;;;;5049404;28;20044;-78
2022/06/27 10:43:39;;;;;;;4.53;2.47;;;20.00;99.90;;;;;;5052903;28;20414;-78
2022/06/27 10:46:11;;;;;;;3.60;1.92;;;20.10;99.90;;;;;;5042029;28;20044;-79
2022/06/27 10:48:50;;;;;;;3.20;2.03;;;20.20;99.90;;;;;;5050780;28;20039;-78
2022/06/27 10:51:19;;;;;;;2.65;2.00;;;20.20;99.90;;;;;;5052921;28;20039;-78
2022/06/27 10:53:45;;;;;;;4.57;1.95;;;20.10;99.90;;;;;;5041865;28;20037;-77
2022/06/27 10:56:29;;;;;;;2.92;2.10;;;20.20;99.90;;;;;;5050135;28;20037;-79
2022/06/27 10:59:00;;;;;;;3.63;2.20;;;20.20;99.90;;;;;;5051350;28;20045;-78
2022/06/27 11:01:26;;;;;;;3.05;2.00;;;20.30;99.90;;;;;;5047315;28;20047;-79
2022/06/27 11:03:51;;;;;;;4.32;2.00;;;20.40;99.90;;;;;;5053849;28;20040;-78
2022/06/27 11:06:18;;;;;;;2.90;2.10;;;20.40;99.90;;;;;;5052127;28;20033;-78
2022/06/27 11:08:51;;;;;;;3.30;1.98;;;20.50;99.90;;;;;;5048227;28;20040;-78
2022/06/27 11:11:30;;;;;;;2.25;2.00;;;20.50;99.90;;;;;;5049450;28;20041;-78
2022/06/27 11:14:01;;;;;;;3.00;2.15;;;20.70;99.90;;;;;;5048819;28;20079;-78
2022/06/27 11:16:32;;;;;;;2.78;2.40;;;20.70;99.90;;;;;;5052668;28;20044;-79
2022/06/27 11:19:02;;;;;;;3.45;2.30;;;20.60;99.90;;;;;;5050819;28;20045;-77
2022/06/27 11:21:38;;;;;;;3.30;2.58;;;20.50;99.90;;;;;;5030037;28;20482;-78
2022/06/27 11:24:05;;;;;;;3.47;2.50;;;20.50;99.90;;;;;;5044831;28;20510;-78
2022/06/27 11:26:33;;;;;;;4.22;2.45;;;20.30;99.90;;;;;;5049083;28;20183;-77
2022/06/27 11:32:04;;;;;;;3.03;2.28;;;20.40;99.90;;;;;;5052337;28;20041;-78
2022/06/27 11:34:33;;;;;;;3.20;2.55;;;20.50;99.90;;;;;;5049013;28;20032;-79
2022/06/27 11:37:02;;;;;;;3.35;2.50;;;20.50;99.90;;;;;;5044743;28;20495;-78
2022/06/27 11:39:30;;;;;;;3.90;2.30;;;20.50;99.90;;;;;;5046172;28;20060;-77
2022/06/27 11:41:57;;;;;;;3.67;2.35;;;20.40;99.90;;;;;;5046470;28;20903;-77
2022/06/27 11:44:24;;;;;;;3.70;2.55;;;20.50;99.90;;;;;;5044358;28;20068;-78
2022/06/27 11:46:51;;;;;;;4.10;2.53;;;20.50;99.90;;;;;;5045910;28;20470;-78
2022/06/27 11:49:37;;;;;;;3.42;2.80;;;20.50;99.90;;;;;;5047086;28;20056;-78
2022/06/27 11:52:11;;;;;;;3.47;2.60;;;20.40;99.90;;;;;;5045835;28;20045;-78
2022/06/27 11:54:46;;;;;;;3.95;2.60;;;20.40;99.90;;;;;;5067139;27;20418;-79
2022/06/27 11:57:21;;;;;;;3.78;2.50;;;20.30;99.90;;;;;;5066575;28;20033;-79
2022/06/27 11:59:49;;;;;;;4.13;2.60;;;20.40;99.90;;;;;;5038366;28;20061;-79
2022/06/27 12:02:34;;;;;;;4.05;2.72;;;20.40;99.90;;;;;;5047311;28;20542;-79
2022/06/27 12:05:18;;;;;;;4.53;2.80;;;20.50;99.90;;;;;;5045992;28;20045;-79
2022/06/27 12:07:52;;;;;;;2.92;2.42;;;20.50;99.90;;;;;;5047350;28;20483;-78
2022/06/27 12:10:36;;;;;;;7.05;2.67;;;20.60;99.90;;;;;;5042959;28;20093;-78
2022/06/27 12:13:10;;;;;;;4.13;2.42;;;20.50;99.90;;;;;;5046999;28;20041;-78
2022/06/27 12:15:38;;;;;;;3.90;2.78;;;20.50;99.90;;;;;;5049334;28;20041;-78
2022/06/27 12:18:04;;;;;;;3.75;3.03;;;20.40;99.90;;;;;;5028589;28;20045;-78
2022/06/27 12:20:33;;;;;;;3.45;2.78;;;20.40;99.90;;;;;;5037372;28;20035;-78
2022/06/27 12:22:58;;;;;;;3.47;2.65;;;20.50;99.90;;;;;;5063921;28;20044;-78
2022/06/27 12:25:24;;;;;;;2.95;2.33;;;20.60;99.90;;;;;;5044277;28;20052;-78
2022/06/27 12:27:50;;;;;;;3.25;2.50;;;20.60;99.90;;;;;;5042744;28;20041;-78
2022/06/27 12:30:17;;;;;;;2.95;2.60;;;20.70;99.90;;;;;;5045484;28;20033;-78
2022/06/27 12:32:43;;;;;;;3.83;2.70;;;20.70;99.90;;;;;;5066611;28;20045;-78
2022/06/27 12:35:10;;;;;;;3.65;2.65;;;20.80;99.90;;;;;;5065997;28;20103;-79
2022/06/27 12:37:36;;;;;;;4.30;3.03;;;21.00;99.90;;;;;;5066387;28;20039;-79
2022/06/27 12:40:07;;;;;;;3.60;2.80;;;21.00;99.90;;;;;;5065795;28;20107;-79
2022/06/27 12:42:33;;;;;;;6.20;3.20;;;21.00;99.90;;;;;;5049660;28;20053;-78
2022/06/27 12:44:59;;;;;;;5.05;3.10;;;21.00;99.90;;;;;;5048631;28;20047;-78
2022/06/27 12:47:25;;;;;;;8.00;3.47;;;21.10;99.90;;;;;;5049303;28;20045;-78
2022/06/27 12:49:50;;;;;;;4.10;3.40;;;21.30;99.90;;;;;;5066145;28;20033;-78
2022/06/27 12:52:16;;;;;;;3.28;2.97;;;21.30;99.90;;;;;;5065203;28;20123;-77
2022/06/27 12:54:43;;;;;;;5.15;3.30;;;21.30;99.90;;;;;;5048474;28;20178;-77